Time;durP1;ratioP1;P1;durP2;ratioP2;P2;SDS_P1;SDS_P2;PMS_P1;PMS_P2;Temp;Humidity;BMP_temperature;BMP_pressure;BME280_temperature;BME280_humidity;BME280_pressure;Samples;Min_cycle;Max_cycle;Signal;HPM_P1;HPM_P2
2023/09/03 00:00:01;;;;;;;8.35;7.55;;;;;;;20.82;57.52;95401.88;5117382;28;20191;-70
2023/09/03 00:02:27;;;;;;;8.20;7.13;;;;;;;20.82;57.16;95401.88;5117218;28;20196;-70
2023/09/03 00:04:54;;;;;;;7.93;7.13;;;;;;;20.81;57.55;95396.69;5117238;28;20622;-69
2023/09/03 00:07:21;;;;;;;8.02;7.32;;;;;;;20.78;57.47;95397.50;5117735;28;20198;-69
2023/09/03 00:09:47;;;;;;;7.88;7.28;;;;;;;20.76;57.59;95402.72;5117347;28;20180;-69
2023/09/03 00:12:15;;;;;;;8.10;7.50;;;;;;;20.74;57.45;95407.94;5117176;28;20216;-69
2023/09/03 00:14:42;;;;;;;8.52;7.82;;;;;;;20.72;57.75;95396.34;5116983;28;20639;-69
2023/09/03 00:17:13;;;;;;;8.35;7.63;;;;;;;20.70;58.11;95395.94;5117126;28;20214;-69
2023/09/03 00:19:40;;;;;;;7.68;6.93;;;;;;;20.72;58.03;95401.94;5117265;28;20188;-69
2023/09/03 00:22:07;;;;;;;8.80;7.90;;;;;;;20.71;57.85;95397.56;5118136;28;20191;-69
2023/09/03 00:24:34;;;;;;;8.00;7.20;;;;;;;20.70;58.05;95407.16;5117053;28;20203;-69
2023/09/03 00:27:01;;;;;;;7.88;7.00;;;;;;;20.60;58.12;95406.81;5117079;28;20195;-69
2023/09/03 00:29:29;;;;;;;8.30;7.63;;;;;;;20.57;58.12;95416.03;5116403;28;20231;-70
2023/09/03 00:31:56;;;;;;;9.43;8.60;;;;;;;20.50;58.56;95420.91;5133757;27;20211;-69
2023/09/03 00:34:23;;;;;;;9.73;7.40;;;;;;;20.46;58.61;95423.69;5116551;28;20203;-69
2023/09/03 00:36:50;;;;;;;7.95;7.25;;;;;;;20.47;58.24;95422.47;5134217;27;20187;-69
2023/09/03 00:39:18;;;;;;;8.20;7.57;;;;;;;20.47;57.89;95425.28;5117211;28;20191;-70
2023/09/03 00:41:45;;;;;;;8.05;7.30;;;;;;;20.50;57.92;95429.31;5116516;28;20202;-70
2023/09/03 00:44:14;;;;;;;8.15;7.45;;;;;;;20.51;57.53;95423.28;5116318;28;20253;-69
2023/09/03 00:46:43;;;;;;;7.65;7.05;;;;;;;20.51;57.27;95414.88;5116321;28;20203;-70
2023/09/03 00:49:11;;;;;;;7.40;6.80;;;;;;;20.51;57.53;95420.47;5116668;28;20183;-69
2023/09/03 00:51:38;;;;;;;8.15;7.25;;;;;;;20.46;57.60;95418.09;5133592;27;20212;-70
2023/09/03 00:54:05;;;;;;;8.05;7.35;;;;;;;20.40;57.66;95408.50;5116528;28;20273;-70
2023/09/03 00:56:32;;;;;;;7.78;7.18;;;;;;;20.41;57.22;95408.13;5116266;28;20198;-70
2023/09/03 00:59:00;;;;;;;7.53;6.90;;;;;;;20.43;57.37;95400.09;5116401;28;20211;-69
2023/09/03 01:01:27;;;;;;;8.30;7.18;;;;;;;20.46;57.55;95401.28;5116357;28;20192;-69
2023/09/03 01:03:56;;;;;;;7.47;6.88;;;;;;;20.50;57.33;95407.69;5116677;28;20191;-70
2023/09/03 01:06:23;;;;;;;7.82;7.10;;;;;;;20.51;57.45;95398.06;5116175;28;20218;-70
2023/09/03 01:08:50;;;;;;;7.60;6.95;;;;;;;20.50;57.90;95399.28;5133245;27;20233;-70
2023/09/03 01:11:28;;;;;;;8.23;7.53;;;;;;;20.50;57.96;95402.09;5115983;28;20212;-70
2023/09/03 01:14:03;;;;;;;7.63;7.03;;;;;;;20.48;58.16;95401.69;5115175;28;20194;-70
2023/09/03 01:16:33;;;;;;;7.50;6.90;;;;;;;20.41;58.31;95396.13;5116021;28;20199;-69
2023/09/03 01:19:06;;;;;;;7.78;7.10;;;;;;;20.35;58.50;95395.72;5115809;28;20204;-70
2023/09/03 01:21:47;;;;;;;7.75;7.05;;;;;;;20.34;58.48;95402.56;5115647;28;20206;-70
2023/09/03 01:24:25;;;;;;;8.43;7.63;;;;;;;20.28;58.75;95408.97;5115385;28;20192;-70
2023/09/03 01:27:03;;;;;;;8.05;7.18;;;;;;;20.26;58.90;95409.41;5116418;28;20221;-70
2023/09/03 01:29:32;;;;;;;8.43;7.72;;;;;;;20.28;58.53;95414.59;5115141;28;20599;-70
2023/09/03 01:32:00;;;;;;;8.20;7.43;;;;;;;20.24;58.76;95411.78;5115547;28;20631;-70
2023/09/03 01:34:27;;;;;;;8.57;7.88;;;;;;;20.24;58.45;95405.41;5115265;28;20191;-70
2023/09/03 01:36:55;;;;;;;8.07;7.40;;;;;;;20.24;58.59;95411.00;5115466;28;20195;-70
2023/09/03 01:39:22;;;;;;;8.35;7.65;;;;;;;20.22;58.43;95414.19;5115423;28;20204;-70
2023/09/03 01:41:49;;;;;;;8.02;7.32;;;;;;;20.25;58.70;95407.78;5115454;28;20202;-70
2023/09/03 01:44:15;;;;;;;7.65;7.05;;;;;;;20.25;58.40;95407.78;5115551;28;20208;-70
2023/09/03 01:46:49;;;;;;;8.05;7.45;;;;;;;20.26;58.29;95402.97;5115447;28;20196;-70
2023/09/03 01:49:31;;;;;;;8.63;7.82;;;;;;;20.27;58.33;95415.78;5115263;28;20192;-70
2023/09/03 01:52:07;;;;;;;8.85;8.13;;;;;;;20.25;58.39;95407.00;5115063;28;20265;-70
2023/09/03 01:54:39;;;;;;;8.07;7.40;;;;;;;20.16;58.92;95411.03;5115267;28;20195;-70
2023/09/03 01:57:08;;;;;;;8.32;7.63;;;;;;;20.11;58.81;95417.03;5115497;28;20588;-70
2023/09/03 01:59:37;;;;;;;7.88;7.28;;;;;;;20.10;59.22;95406.25;5115013;28;20196;-70
2023/09/03 02:02:08;;;;;;;8.18;7.57;;;;;;;20.05;59.16;95404.69;5115311;28;20187;-70
2023/09/03 02:04:34;;;;;;;8.38;7.68;;;;;;;20.00;59.13;95407.88;5114764;28;20198;-69
2023/09/03 02:07:01;;;;;;;8.30;7.70;;;;;;;19.99;59.66;95408.31;5115037;28;20198;-69
2023/09/03 02:09:28;;;;;;;8.15;7.50;;;;;;;20.00;59.45;95401.50;5115074;28;20203;-70
2023/09/03 02:11:54;;;;;;;8.40;7.70;;;;;;;19.98;59.72;95393.50;5114638;28;20223;-69
2023/09/03 02:14:21;;;;;;;8.13;7.53;;;;;;;19.92;59.64;95395.13;5114967;28;20510;-70
2023/09/03 02:16:48;;;;;;;8.35;7.55;;;;;;;19.87;59.62;95403.97;5132806;27;20196;-70
2023/09/03 02:19:16;;;;;;;8.20;7.50;;;;;;;19.82;59.73;95410.75;5115211;28;20273;-70
2023/09/03 02:21:43;;;;;;;8.85;8.00;;;;;;;19.81;59.12;95408.38;5115071;28;20207;-69
2023/09/03 02:24:09;;;;;;;8.75;7.97;;;;;;;19.76;59.66;95404.00;5114946;28;20183;-69
2023/09/03 02:26:41;;;;;;;8.40;7.70;;;;;;;19.69;59.67;95404.81;5114917;28;20203;-69
2023/09/03 02:29:07;;;;;;;8.70;7.93;;;;;;;19.63;59.82;95406.41;5128479;27;20588;-69
2023/09/03 02:31:34;;;;;;;8.75;7.95;;;;;;;19.60;60.11;95407.19;5094636;28;20205;-69
2023/09/03 02:34:01;;;;;;;8.40;7.60;;;;;;;19.54;60.06;95400.41;5128622;28;20188;-69
2023/09/03 02:36:30;;;;;;;8.45;7.75;;;;;;;19.51;60.21;95403.22;5094883;28;20198;-69
2023/09/03 02:39:00;;;;;;;7.70;7.07;;;;;;;19.54;60.35;95397.63;5095332;28;20196;-69
2023/09/03 02:41:27;;;;;;;7.75;7.10;;;;;;;19.54;60.59;95403.22;5094653;28;20257;-69
2023/09/03 02:43:54;;;;;;;7.70;7.18;;;;;;;19.52;60.26;95402.00;5094181;28;20200;-70
2023/09/03 02:46:21;;;;;;;8.35;7.57;;;;;;;19.47;60.48;95406.81;5128445;28;20271;-70
2023/09/03 02:48:48;;;;;;;7.93;7.32;;;;;;;19.43;60.59;95405.25;5094861;28;20245;-70
2023/09/03 02:51:15;;;;;;;8.40;7.70;;;;;;;19.38;60.76;95414.81;5094106;28;20215;-70
2023/09/03 02:53:45;;;;;;;8.73;8.02;;;;;;;19.33;61.00;95408.84;5094440;28;20196;-70
2023/09/03 02:56:13;;;;;;;8.88;7.97;;;;;;;19.33;61.13;95418.03;5093883;28;20200;-70
2023/09/03 02:58:40;;;;;;;8.35;7.53;;;;;;;19.35;61.12;95414.81;5093831;28;20250;-70
2023/09/03 03:01:08;;;;;;;9.38;7.47;;;;;;;19.34;61.13;95414.03;5094368;28;20201;-70
2023/09/03 03:03:34;;;;;;;8.07;7.38;;;;;;;19.30;60.82;95410.44;5093942;28;20211;-70
2023/09/03 03:06:01;;;;;;;8.10;7.40;;;;;;;19.23;61.21;95411.22;5093815;28;20193;-70
2023/09/03 03:08:28;;;;;;;8.05;7.32;;;;;;;19.20;61.23;95409.22;5094214;28;20193;-70
2023/09/03 03:11:06;;;;;;;7.93;7.32;;;;;;;19.17;61.20;95400.84;5094519;28;20196;-70
2023/09/03 03:13:33;;;;;;;8.35;7.65;;;;;;;19.16;61.20;95405.66;5128312;28;20656;-70
2023/09/03 03:16:04;;;;;;;8.48;7.57;;;;;;;19.13;61.18;95403.66;5094128;28;20196;-70
2023/09/03 03:18:31;;;;;;;8.93;8.13;;;;;;;19.10;61.61;95398.88;5093737;28;20200;-70
2023/09/03 03:21:05;;;;;;;8.68;7.88;;;;;;;19.00;61.55;95396.88;5093822;28;20246;-69
2023/09/03 03:23:32;;;;;;;8.38;7.68;;;;;;;18.97;61.84;95400.47;5093858;28;20200;-70
2023/09/03 03:25:58;;;;;;;8.82;8.02;;;;;;;18.96;62.00;95396.09;5093567;28;20192;-70
2023/09/03 03:28:26;;;;;;;8.43;7.72;;;;;;;18.97;62.18;95383.69;5102269;28;20236;-70
2023/09/03 03:30:53;;;;;;;8.75;7.80;;;;;;;19.00;61.99;95400.47;5114355;28;20200;-69
2023/09/03 03:33:20;;;;;;;8.90;8.00;;;;;;;18.99;61.84;95395.25;5131531;28;20219;-69
2023/09/03 03:35:46;;;;;;;9.60;8.68;;;;;;;18.94;62.11;95396.47;5115444;28;20206;-69
2023/09/03 03:38:13;;;;;;;8.85;7.97;;;;;;;18.89;61.97;95396.09;5134868;27;20191;-70
2023/09/03 03:40:40;;;;;;;9.05;8.25;;;;;;;18.89;62.30;95401.69;5117595;28;20195;-69
2023/09/03 03:43:06;;;;;;;8.93;8.10;;;;;;;18.90;62.34;95398.47;5118361;28;20536;-69
2023/09/03 03:45:35;;;;;;;9.15;8.38;;;;;;;18.91;61.99;95404.84;5117757;28;20199;-69
2023/09/03 03:48:01;;;;;;;9.30;8.50;;;;;;;18.90;61.87;95406.84;5118055;28;20208;-69
2023/09/03 03:50:30;;;;;;;8.75;7.95;;;;;;;18.92;62.00;95406.47;5117317;28;20195;-69
2023/09/03 03:52:57;;;;;;;9.02;8.23;;;;;;;18.88;61.77;95402.84;5117366;28;20231;-69
2023/09/03 03:55:23;;;;;;;9.43;8.52;;;;;;;18.83;61.75;95406.84;5135027;27;20196;-69
2023/09/03 03:57:50;;;;;;;9.73;8.73;;;;;;;18.84;62.22;95410.44;5118269;28;20195;-69
2023/09/03 04:00:17;;;;;;;8.70;7.88;;;;;;;18.82;62.04;95410.84;5117221;28;20203;-69
2023/09/03 04:02:45;;;;;;;8.98;8.07;;;;;;;18.76;62.02;95412.44;5118168;28;20271;-69
2023/09/03 04:05:12;;;;;;;8.48;7.70;;;;;;;18.74;62.04;95412.03;5117343;28;20583;-69
2023/09/03 04:07:39;;;;;;;8.55;7.85;;;;;;;18.71;62.32;95415.63;5117147;28;20620;-69
2023/09/03 04:10:06;;;;;;;9.05;8.13;;;;;;;18.70;62.45;95419.56;5117293;28;20199;-69
2023/09/03 04:12:33;;;;;;;8.65;7.90;;;;;;;18.64;62.21;95413.59;5116826;28;20651;-69
2023/09/03 04:15:00;;;;;;;9.07;8.18;;;;;;;18.58;62.53;95423.53;5118291;28;20223;-69
2023/09/03 04:17:27;;;;;;;8.68;7.88;;;;;;;18.59;62.68;95421.53;5118154;28;20184;-69
2023/09/03 04:19:56;;;;;;;10.30;8.55;;;;;;;18.63;62.80;95417.59;5117722;28;20199;-69
2023/09/03 04:22:23;;;;;;;8.68;7.88;;;;;;;18.64;62.69;95412.78;5116953;28;20204;-69
2023/09/03 04:24:49;;;;;;;8.77;7.90;;;;;;;18.60;62.88;95407.19;5117260;28;20192;-69
2023/09/03 04:27:16;;;;;;;9.50;8.60;;;;;;;18.65;62.68;95412.38;5117197;28;20200;-68
2023/09/03 04:29:43;;;;;;;8.93;8.05;;;;;;;18.65;62.86;95406.81;5137228;27;20299;-70
2023/09/03 04:32:10;;;;;;;9.07;8.18;;;;;;;18.68;62.96;95413.59;5119818;27;20207;-69
2023/09/03 04:34:37;;;;;;;10.70;9.13;;;;;;;18.69;62.64;95413.19;5120163;27;20194;-70
2023/09/03 04:37:06;;;;;;;11.38;8.70;;;;;;;18.68;62.84;95413.59;5138274;27;20622;-70
2023/09/03 04:39:32;;;;;;;10.30;9.23;;;;;;;18.63;62.89;95420.38;5120082;27;20236;-69
2023/09/03 04:41:59;;;;;;;11.40;8.75;;;;;;;18.57;63.13;95410.78;5137831;27;20216;-69
2023/09/03 04:44:26;;;;;;;11.38;9.13;;;;;;;18.57;63.09;95402.41;5119992;27;20195;-68
2023/09/03 04:46:53;;;;;;;9.90;8.70;;;;;;;18.62;63.23;95404.78;5138341;27;20255;-68
2023/09/03 04:49:20;;;;;;;10.55;8.68;;;;;;;18.68;63.59;95400.41;5137956;27;20183;-70
2023/09/03 04:51:46;;;;;;;9.27;8.27;;;;;;;18.73;63.41;95397.25;5136827;27;20611;-69
2023/09/03 04:54:14;;;;;;;9.45;8.65;;;;;;;18.82;63.31;95387.69;5136974;27;20289;-68
2023/09/03 04:56:41;;;;;;;9.30;8.50;;;;;;;18.88;62.99;95388.88;5137657;27;20596;-69
2023/09/03 04:59:10;;;;;;;11.05;8.90;;;;;;;18.92;63.10;95389.72;5119422;27;20183;-68
2023/09/03 05:01:37;;;;;;;9.20;8.30;;;;;;;18.92;63.56;95387.69;5137654;27;20183;-69
2023/09/03 05:04:05;;;;;;;9.65;8.73;;;;;;;18.95;63.24;95386.09;5119506;27;20195;-69
2023/09/03 05:06:31;;;;;;;10.13;9.20;;;;;;;18.98;62.99;95383.28;5119422;27;20611;-69
2023/09/03 05:08:58;;;;;;;9.40;8.50;;;;;;;19.03;62.93;95387.69;5137097;27;20199;-69
2023/09/03 05:11:26;;;;;;;9.60;8.80;;;;;;;19.08;62.90;95372.53;5119182;27;20220;-69
2023/09/03 05:13:53;;;;;;;11.13;10.05;;;;;;;19.05;63.49;95384.50;5137404;27;20214;-68
2023/09/03 05:16:22;;;;;;;10.85;9.85;;;;;;;19.06;63.34;95381.28;5137446;27;20191;-68
2023/09/03 05:18:49;;;;;;;10.38;9.38;;;;;;;19.14;62.54;95379.31;5136175;27;20598;-68
2023/09/03 05:21:16;;;;;;;10.27;9.32;;;;;;;19.21;62.71;95377.31;5119535;27;20244;-68
2023/09/03 05:23:42;;;;;;;9.05;8.27;;;;;;;19.23;61.94;95382.47;5119135;27;20626;-68
2023/09/03 05:26:09;;;;;;;8.43;7.72;;;;;;;19.25;61.88;95377.31;5119196;27;20210;-68
2023/09/03 05:28:37;;;;;;;8.38;7.68;;;;;;;19.23;61.50;95388.88;5118814;27;20283;-68
2023/09/03 05:31:04;;;;;;;8.73;7.95;;;;;;;19.26;61.53;95389.28;5137330;27;20191;-69
2023/09/03 05:33:31;;;;;;;9.13;8.30;;;;;;;19.29;61.65;95392.06;5136866;27;20618;-68
2023/09/03 05:35:58;;;;;;;8.57;7.88;;;;;;;19.31;61.62;95381.25;5137027;27;20199;-69
2023/09/03 05:38:24;;;;;;;8.35;7.55;;;;;;;19.36;61.12;95386.47;5118944;27;20210;-70
2023/09/03 05:40:51;;;;;;;9.13;8.30;;;;;;;19.38;60.90;95386.84;5118724;27;20209;-69
2023/09/03 05:43:18;;;;;;;8.88;8.07;;;;;;;19.39;61.19;95385.66;5136831;27;20183;-68
2023/09/03 05:45:46;;;;;;;8.68;7.95;;;;;;;19.43;60.87;95385.66;5136894;27;20195;-70
2023/09/03 05:48:13;;;;;;;8.23;7.57;;;;;;;19.47;60.67;95394.84;5118895;27;20187;-69
2023/09/03 05:50:40;;;;;;;8.85;8.10;;;;;;;19.52;61.42;95391.63;5118462;27;20195;-70
2023/09/03 05:53:07;;;;;;;8.52;7.82;;;;;;;19.54;61.39;95392.03;5135913;27;20211;-69
2023/09/03 05:55:37;;;;;;;8.75;8.00;;;;;;;19.54;61.47;95408.00;5136352;27;20522;-69
2023/09/03 05:58:04;;;;;;;8.65;7.88;;;;;;;19.47;61.25;95400.44;5118803;27;20191;-70
2023/09/03 06:00:34;;;;;;;8.48;7.78;;;;;;;19.47;61.69;95403.22;5118189;27;20191;-70
2023/09/03 06:03:02;;;;;;;8.20;7.50;;;;;;;19.43;62.05;95403.22;5118648;27;20198;-69
2023/09/03 06:05:29;;;;;;;8.70;7.80;;;;;;;19.44;62.17;95396.44;5135845;27;20199;-69
2023/09/03 06:07:57;;;;;;;8.65;7.95;;;;;;;19.47;61.88;95406.03;5118503;27;20535;-69
2023/09/03 06:10:24;;;;;;;9.00;8.30;;;;;;;19.48;61.93;95394.41;5135506;27;20195;-70
2023/09/03 06:12:51;;;;;;;8.82;7.95;;;;;;;19.48;61.89;95400.03;5118243;27;20214;-70
2023/09/03 06:15:17;;;;;;;8.23;7.55;;;;;;;19.50;62.05;95402.44;5118359;27;20199;-69
2023/09/03 06:17:48;;;;;;;8.55;7.85;;;;;;;19.51;62.07;95411.63;5118555;27;20199;-70
2023/09/03 06:20:17;;;;;;;8.10;7.40;;;;;;;19.54;61.82;95408.00;5136052;27;20198;-69
2023/09/03 06:22:44;;;;;;;8.18;7.53;;;;;;;19.59;62.31;95402.78;5118420;27;20198;-69
2023/09/03 06:25:10;;;;;;;9.20;8.40;;;;;;;19.63;62.23;95408.41;5118384;28;20195;-69
2023/09/03 06:27:37;;;;;;;8.65;7.85;;;;;;;19.63;62.10;95405.63;5118360;28;20195;-69
2023/09/03 06:30:04;;;;;;;9.52;8.00;;;;;;;19.64;62.02;95407.19;5135352;27;20195;-69
2023/09/03 06:32:32;;;;;;;8.75;7.88;;;;;;;19.66;61.38;95414.00;5135869;28;20594;-70
2023/09/03 06:34:58;;;;;;;9.10;8.32;;;;;;;19.66;61.56;95416.78;5118271;28;20206;-69
2023/09/03 06:37:26;;;;;;;8.07;7.43;;;;;;;19.68;61.04;95414.41;5118624;28;20191;-69
2023/09/03 06:39:53;;;;;;;8.00;7.40;;;;;;;19.69;61.26;95412.41;5135676;28;20559;-69
2023/09/03 06:42:20;;;;;;;7.72;7.13;;;;;;;19.71;60.90;95409.97;5118211;28;20191;-69
2023/09/03 06:44:47;;;;;;;8.60;7.80;;;;;;;19.75;60.81;95410.75;5118140;28;20205;-69
2023/09/03 06:47:14;;;;;;;8.13;7.43;;;;;;;19.79;60.94;95408.78;5136215;28;20564;-69
2023/09/03 06:49:41;;;;;;;8.77;7.57;;;;;;;19.84;60.50;95421.56;5118040;28;20244;-69
2023/09/03 06:52:08;;;;;;;8.85;7.95;;;;;;;19.86;60.56;95419.97;5117996;28;20183;-70
2023/09/03 06:54:36;;;;;;;9.07;8.27;;;;;;;19.90;60.78;95417.16;5118004;28;20222;-69
2023/09/03 06:57:03;;;;;;;8.30;7.60;;;;;;;19.96;60.42;95412.72;5118361;28;20198;-69
2023/09/03 06:59:29;;;;;;;8.05;7.25;;;;;;;20.03;60.87;95409.09;5136023;28;20198;-69
2023/09/03 07:01:56;;;;;;;8.55;7.75;;;;;;;20.11;60.63;95419.03;5134846;28;20202;-69
2023/09/03 07:04:23;;;;;;;10.13;9.23;;;;;;;20.20;60.75;95406.22;5135020;28;20191;-69
2023/09/03 07:06:50;;;;;;;8.68;7.88;;;;;;;20.30;60.13;95407.38;5135985;28;20194;-69
2023/09/03 07:09:17;;;;;;;8.88;8.07;;;;;;;20.35;60.21;95406.94;5118307;28;20203;-69
2023/09/03 07:11:45;;;;;;;9.32;8.43;;;;;;;20.39;59.25;95406.91;5120184;27;20226;-69
2023/09/03 07:14:12;;;;;;;8.98;8.10;;;;;;;20.43;59.48;95416.09;5121801;27;20215;-69
2023/09/03 07:16:39;;;;;;;8.77;8.07;;;;;;;20.47;59.26;95410.47;5121989;27;20515;-69
2023/09/03 07:19:05;;;;;;;8.18;7.47;;;;;;;20.54;59.21;95416.06;5121643;27;20191;-69
2023/09/03 07:21:32;;;;;;;7.97;7.28;;;;;;;20.64;60.44;95415.22;5121371;27;20599;-69
2023/09/03 07:23:59;;;;;;;8.65;7.85;;;;;;;20.80;60.41;95418.28;5121846;27;20207;-69
2023/09/03 07:26:25;;;;;;;9.20;8.40;;;;;;;20.85;58.99;95417.09;5138432;27;20207;-69
2023/09/03 07:28:53;;;;;;;9.85;9.05;;;;;;;20.89;58.46;95409.44;5139145;27;20291;-69
2023/09/03 07:31:20;;;;;;;9.82;9.02;;;;;;;20.95;57.79;95413.38;5121897;27;20190;-69
2023/09/03 07:33:48;;;;;;;9.02;8.23;;;;;;;20.96;57.84;95403.00;5139442;27;20203;-69
2023/09/03 07:36:15;;;;;;;8.70;8.00;;;;;;;21.02;58.31;95406.94;5121408;27;20202;-69
2023/09/03 07:38:41;;;;;;;9.13;8.18;;;;;;;21.10;57.70;95409.28;5121102;27;20599;-68
2023/09/03 07:41:08;;;;;;;8.52;7.70;;;;;;;21.16;57.09;95413.22;5139407;27;20187;-68
2023/09/03 07:43:35;;;;;;;9.90;7.93;;;;;;;21.20;56.90;95412.38;5120994;27;20195;-68
2023/09/03 07:46:05;;;;;;;8.88;8.05;;;;;;;21.32;56.38;95409.09;5121331;27;20190;-68
2023/09/03 07:48:31;;;;;;;9.02;8.13;;;;;;;21.38;56.48;95413.06;5121146;27;20206;-69
2023/09/03 07:50:58;;;;;;;8.23;7.53;;;;;;;21.44;56.86;95407.81;5121293;27;20195;-68
2023/09/03 07:53:25;;;;;;;8.43;7.70;;;;;;;21.63;56.37;95410.00;5121025;27;20317;-68
2023/09/03 07:55:52;;;;;;;7.97;7.25;;;;;;;21.77;57.36;95412.69;5121183;27;20213;-68
2023/09/03 07:58:18;;;;;;;9.18;8.32;;;;;;;21.91;57.19;95411.72;5120964;27;20198;-68
2023/09/03 08:00:46;;;;;;;8.60;7.53;;;;;;;22.04;56.76;95409.16;5120861;27;20199;-68
2023/09/03 08:03:14;;;;;;;8.85;7.95;;;;;;;22.21;56.18;95413.81;5139221;27;20187;-68
2023/09/03 08:05:41;;;;;;;8.82;8.02;;;;;;;22.40;54.00;95409.53;5138178;27;20187;-69
2023/09/03 08:08:07;;;;;;;9.13;8.02;;;;;;;22.42;53.79;95415.53;5120742;27;20199;-68
2023/09/03 08:10:34;;;;;;;9.10;8.23;;;;;;;22.44;53.91;95412.31;5120665;27;20191;-68
2023/09/03 08:13:01;;;;;;;9.70;8.70;;;;;;;22.50;53.28;95407.81;5138675;27;20198;-68
2023/09/03 08:15:27;;;;;;;8.70;7.90;;;;;;;22.68;53.09;95410.38;5120818;27;20213;-69
2023/09/03 08:17:54;;;;;;;8.18;7.38;;;;;;;22.79;54.07;95403.38;5120786;27;20203;-69
2023/09/03 08:20:22;;;;;;;8.73;7.88;;;;;;;22.94;53.76;95406.00;5137612;27;20202;-69
2023/09/03 08:22:49;;;;;;;9.48;7.07;;;;;;;23.13;54.01;95401.69;5120327;27;20198;-68
2023/09/03 08:25:16;;;;;;;8.25;7.53;;;;;;;23.30;52.10;95397.78;5120249;27;20198;-69
2023/09/03 08:27:43;;;;;;;8.43;7.72;;;;;;;23.39;52.82;95398.03;5138254;27;20206;-69
2023/09/03 08:30:11;;;;;;;9.00;8.20;;;;;;;23.47;51.92;95393.88;5138111;27;20289;-68
2023/09/03 08:32:37;;;;;;;7.43;6.80;;;;;;;23.61;50.67;95397.66;5138051;27;20175;-69
2023/09/03 08:35:05;;;;;;;8.68;7.97;;;;;;;23.73;50.40;95389.41;5138157;27;20214;-69
2023/09/03 08:37:33;;;;;;;8.43;7.63;;;;;;;23.86;49.62;95386.75;5120499;27;20194;-68
2023/09/03 08:40:01;;;;;;;8.25;7.30;;;;;;;23.97;50.05;95384.53;5120420;27;20199;-68
2023/09/03 08:42:29;;;;;;;8.65;7.55;;;;;;;24.18;47.01;95377.66;5137835;27;20216;-69
2023/09/03 08:45:03;;;;;;;7.78;7.07;;;;;;;24.29;47.14;95368.16;5120535;27;20610;-69
2023/09/03 08:47:30;;;;;;;9.00;8.20;;;;;;;24.37;46.67;95363.97;5120129;27;20187;-71
2023/09/03 08:49:57;;;;;;;8.05;7.40;;;;;;;24.45;46.30;95369.06;5137995;27;20195;-68
2023/09/03 08:52:24;;;;;;;7.05;6.35;;;;;;;24.45;45.04;95360.59;5119484;27;20261;-68
2023/09/03 08:54:53;;;;;;;7.60;6.95;;;;;;;24.41;45.62;95354.25;5119518;27;20730;-68
2023/09/03 08:57:19;;;;;;;6.75;6.20;;;;;;;24.40;45.14;95358.31;5137700;27;20175;-68
2023/09/03 08:59:46;;;;;;;7.43;6.60;;;;;;;24.39;45.56;95358.69;5137852;27;20203;-68
2023/09/03 09:02:13;;;;;;;6.22;5.72;;;;;;;24.39;44.88;95345.41;5138071;27;20187;-68
2023/09/03 09:04:40;;;;;;;7.13;6.43;;;;;;;24.57;43.66;95336.56;5137569;27;20219;-68
2023/09/03 09:07:07;;;;;;;7.35;6.68;;;;;;;24.44;45.53;95335.66;5136611;27;20188;-68
2023/09/03 09:09:35;;;;;;;8.30;6.18;;;;;;;24.35;44.04;95326.97;5119621;27;20206;-68
2023/09/03 09:12:11;;;;;;;8.32;6.07;;;;;;;24.31;44.52;95337.53;5119605;27;20207;-68
2023/09/03 09:14:43;;;;;;;6.30;5.78;;;;;;;24.38;43.06;95334.56;5119430;27;20207;-68
2023/09/03 09:17:12;;;;;;;7.32;6.55;;;;;;;24.36;43.98;95334.97;5119100;27;20610;-70
2023/09/03 09:19:39;;;;;;;7.70;6.53;;;;;;;24.50;43.19;95329.06;5119512;27;20196;-69
2023/09/03 09:22:06;;;;;;;7.43;6.70;;;;;;;24.58;42.01;95328.88;5119015;27;20276;-70
2023/09/03 09:24:41;;;;;;;9.00;8.20;;;;;;;24.78;40.60;95326.03;5119193;27;20244;-69
2023/09/03 09:27:15;;;;;;;6.88;6.32;;;;;;;25.02;39.76;95327.44;5119927;27;20626;-69
2023/09/03 09:29:42;;;;;;;6.97;6.38;;;;;;;25.15;39.72;95327.53;5136814;27;20238;-69
2023/09/03 09:32:18;;;;;;;7.55;6.85;;;;;;;25.21;39.21;95328.59;5137016;27;20187;-69
2023/09/03 09:34:45;;;;;;;6.68;5.97;;;;;;;25.35;39.45;95321.81;5118954;27;20240;-71
2023/09/03 09:37:12;;;;;;;6.90;6.40;;;;;;;25.42;39.31;95316.75;5119591;27;20203;-69
2023/09/03 09:39:43;;;;;;;7.00;6.20;;;;;;;25.52;39.25;95314.06;5137403;27;20187;-69
2023/09/03 09:42:12;;;;;;;6.72;6.22;;;;;;;25.62;38.48;95307.34;5118593;27;20187;-69
2023/09/03 09:44:42;;;;;;;6.68;6.18;;;;;;;25.63;38.11;95306.88;5118555;27;20217;-69
2023/09/03 09:47:16;;;;;;;6.60;6.00;;;;;;;25.68;37.39;95309.19;5118960;27;20252;-69
2023/09/03 09:49:43;;;;;;;7.65;6.10;;;;;;;25.70;37.13;95303.88;5136829;27;20187;-69
2023/09/03 09:52:12;;;;;;;6.97;6.38;;;;;;;25.62;38.17;95301.69;5118948;27;20187;-69
2023/09/03 09:54:40;;;;;;;6.82;6.20;;;;;;;25.55;37.44;95299.06;5136683;27;20211;-70
2023/09/03 09:57:11;;;;;;;5.95;5.45;;;;;;;25.53;37.38;95293.88;5119011;27;20195;-69
2023/09/03 09:59:39;;;;;;;6.63;6.07;;;;;;;25.41;38.23;95289.75;5136758;27;20182;-70
2023/09/03 10:02:13;;;;;;;7.07;6.53;;;;;;;25.45;37.79;95284.00;5118675;27;20195;-69
2023/09/03 10:04:44;;;;;;;7.13;6.43;;;;;;;25.54;37.42;95274.91;5118542;27;20183;-69
2023/09/03 10:07:11;;;;;;;7.05;6.28;;;;;;;25.68;37.64;95275.28;5137152;27;20244;-69
2023/09/03 10:09:39;;;;;;;7.00;6.40;;;;;;;25.82;35.63;95268.47;5136641;27;20183;-69
2023/09/03 10:12:06;;;;;;;6.70;6.20;;;;;;;25.83;35.85;95272.09;5136331;27;20180;-70
2023/09/03 10:14:33;;;;;;;6.30;5.80;;;;;;;25.79;35.31;95260.09;5136336;27;20214;-70
2023/09/03 10:17:02;;;;;;;6.22;5.72;;;;;;;25.89;35.40;95256.97;5136647;27;20240;-70
2023/09/03 10:19:40;;;;;;;6.40;5.80;;;;;;;25.95;35.48;95251.53;5136546;27;20267;-69
2023/09/03 10:22:10;;;;;;;6.90;6.28;;;;;;;25.94;36.07;95247.13;5136286;27;20183;-69
2023/09/03 10:24:38;;;;;;;6.60;6.00;;;;;;;26.13;36.26;95242.53;5136432;27;20183;-69
2023/09/03 10:27:06;;;;;;;7.35;6.45;;;;;;;26.27;36.27;95246.97;5136027;27;20194;-69
2023/09/03 10:29:34;;;;;;;6.85;5.82;;;;;;;26.34;36.15;95249.56;5118437;28;20223;-70
2023/09/03 10:32:02;;;;;;;6.35;5.75;;;;;;;26.45;36.08;95240.75;5118035;28;20581;-69
2023/09/03 10:34:33;;;;;;;6.25;5.68;;;;;;;26.51;34.94;95250.25;5135981;28;20222;-69
2023/09/03 10:37:03;;;;;;;6.15;5.63;;;;;;;26.62;34.56;95245.06;5118395;28;20190;-69
2023/09/03 10:39:30;;;;;;;6.20;5.70;;;;;;;26.71;34.65;95236.69;5118173;28;20252;-69
2023/09/03 10:42:29;;;;;;;6.03;5.50;;;;;;;26.74;34.30;95235.75;5118573;28;20209;-69
2023/09/03 10:44:57;;;;;;;5.43;5.03;;;;;;;26.91;33.57;95233.59;5137242;27;20195;-69
2023/09/03 10:47:25;;;;;;;5.72;5.22;;;;;;;27.03;33.43;95238.44;5123020;27;20194;-69
2023/09/03 10:49:54;;;;;;;5.95;5.45;;;;;;;27.30;33.16;95228.63;5122505;27;20186;-69
2023/09/03 10:52:40;;;;;;;5.65;5.15;;;;;;;27.30;32.38;95220.91;5122184;27;20202;-70
2023/09/03 10:55:11;;;;;;;5.93;5.32;;;;;;;27.20;34.51;95219.28;5121933;27;20310;-69
2023/09/03 10:57:37;;;;;;;6.00;5.40;;;;;;;27.16;33.18;95204.44;5122285;27;20187;-69
2023/09/03 11:00:15;;;;;;;6.55;5.95;;;;;;;27.10;32.80;95204.22;5122252;27;20195;-69
2023/09/03 11:02:43;;;;;;;6.22;5.72;;;;;;;27.19;32.19;95203.53;5122138;27;20199;-70
2023/09/03 11:05:12;;;;;;;5.25;4.85;;;;;;;27.22;31.42;95199.78;5140284;27;20195;-69
2023/09/03 11:07:38;;;;;;;5.18;4.78;;;;;;;27.32;32.46;95195.00;5139775;27;20180;-68
2023/09/03 11:10:42;;;;;;;5.75;5.25;;;;;;;27.35;32.26;95188.41;5122111;27;20206;-68
2023/09/03 11:13:13;;;;;;;6.35;5.38;;;;;;;27.42;32.31;95193.03;5122184;27;20195;-68
2023/09/03 11:15:55;;;;;;;5.25;4.82;;;;;;;27.42;31.61;95187.38;5121684;27;20222;-68
2023/09/03 11:18:22;;;;;;;5.35;4.90;;;;;;;27.51;31.12;95190.25;5139421;27;20212;-68
2023/09/03 11:20:51;;;;;;;4.88;4.47;;;;;;;27.58;30.70;95173.00;5139756;27;20187;-68
2023/09/03 11:23:18;;;;;;;5.97;5.38;;;;;;;27.65;31.40;95175.56;5121908;27;20216;-68
2023/09/03 11:25:47;;;;;;;5.25;4.78;;;;;;;27.80;31.59;95170.16;5121653;27;20191;-68
2023/09/03 11:28:14;;;;;;;5.63;5.22;;;;;;;28.16;30.76;95165.94;5121114;27;20233;-68
2023/09/03 11:30:42;;;;;;;6.10;5.60;;;;;;;28.28;31.57;95165.03;5121257;27;20199;-67
2023/09/03 11:33:10;;;;;;;5.35;4.85;;;;;;;28.36;30.84;95166.34;5121562;27;20195;-68
2023/09/03 11:35:42;;;;;;;5.80;5.30;;;;;;;28.30;31.51;95165.38;5138574;27;20215;-68
2023/09/03 11:38:11;;;;;;;5.93;5.40;;;;;;;28.34;30.83;95157.50;5139377;27;20191;-68